Time;durP1;ratioP1;P1;durP2;ratioP2;P2;SDS_P1;SDS_P2;PMS_P1;PMS_P2;Temp;Humidity;BMP_temperature;BMP_pressure;BME280_temperature;BME280_humidity;BME280_pressure;Samples;Min_cycle;Max_cycle;Signal;HPM_P1;HPM_P2
2023/08/28 00:01:33;;;;;;;0.00;0.00;;;;;;;;;;7386155;19;20152;-68
2023/08/28 00:04:04;;;;;;;0.00;0.00;;;;;;;;;;7383489;19;20153;-68
2023/08/28 00:06:33;;;;;;;0.00;0.00;;;;;;;;;;7386566;19;20160;-68
2023/08/28 00:09:02;;;;;;;0.00;0.00;;;;;;;;;;7386120;19;20144;-68
2023/08/28 00:11:35;;;;;;;0.00;0.00;;;;;;;;;;7386322;19;20193;-68
2023/08/28 00:14:04;;;;;;;0.00;0.00;;;;;;;;;;7385127;19;20153;-68
2023/08/28 00:16:34;;;;;;;0.00;0.00;;;;;;;;;;7388239;19;20145;-67
2023/08/28 00:19:05;;;;;;;0.00;0.00;;;;;;;;;;7385458;19;20154;-68
2023/08/28 00:21:35;;;;;;;0.00;0.00;;;;;;;;;;7377946;19;20243;-68
2023/08/28 00:24:04;;;;;;;0.00;0.00;;;;;;;;;;7382968;19;20161;-68
2023/08/28 00:26:33;;;;;;;0.00;0.00;;;;;;;;;;7385065;19;20148;-68
2023/08/28 00:29:02;;;;;;;0.00;0.00;;;;;;;;;;7383797;19;20151;-69
2023/08/28 00:31:32;;;;;;;0.00;0.00;;;;;;;;;;7384078;19;20207;-69
2023/08/28 00:34:00;;;;;;;0.00;0.00;;;;;;;;;;7382119;19;20180;-69
2023/08/28 00:36:34;;;;;;;0.00;0.00;;;;;;;;;;7384060;19;20155;-68
2023/08/28 00:39:02;;;;;;;0.00;0.00;;;;;;;;;;7384083;19;20152;-68
2023/08/28 00:41:33;;;;;;;0.00;0.00;;;;;;;;;;7383071;19;20234;-68
2023/08/28 00:44:03;;;;;;;0.00;0.00;;;;;;;;;;7385339;19;20177;-68
2023/08/28 00:46:33;;;;;;;0.00;0.00;;;;;;;;;;7385157;19;20129;-68
2023/08/28 00:49:02;;;;;;;0.00;0.00;;;;;;;;;;7382945;19;20216;-68
2023/08/28 00:51:34;;;;;;;0.00;0.00;;;;;;;;;;7384060;19;20149;-69
2023/08/28 00:54:07;;;;;;;0.00;0.00;;;;;;;;;;7382900;19;20677;-69
2023/08/28 00:56:36;;;;;;;0.00;0.00;;;;;;;;;;7382595;19;20166;-68
2023/08/28 00:59:05;;;;;;;0.00;0.00;;;;;;;;;;7383426;19;20148;-68
2023/08/28 01:01:34;;;;;;;0.00;0.00;;;;;;;;;;7382027;19;20188;-69
2023/08/28 01:04:03;;;;;;;0.00;0.00;;;;;;;;;;7382349;19;20163;-68
2023/08/28 01:06:38;;;;;;;0.00;0.00;;;;;;;;;;7383402;19;20145;-69
2023/08/28 01:09:13;;;;;;;0.00;0.00;;;;;;;;;;7382866;19;20190;-67
2023/08/28 01:11:48;;;;;;;0.00;0.00;;;;;;;;;;7381328;19;20187;-68
2023/08/28 01:14:19;;;;;;;0.00;0.00;;;;;;;;;;7380967;19;20147;-68
2023/08/28 01:16:49;;;;;;;0.00;0.00;;;;;;;;;;7382444;19;20174;-68
2023/08/28 01:19:22;;;;;;;0.00;0.00;;;;;;;;;;7382419;19;20624;-68
2023/08/28 01:21:57;;;;;;;0.00;0.00;;;;;;;;;;7381495;19;20247;-68
2023/08/28 01:24:28;;;;;;;0.00;0.00;;;;;;;;;;7382156;19;20159;-67
2023/08/28 01:27:00;;;;;;;0.00;0.00;;;;;;;;;;7384119;19;20193;-69
2023/08/28 01:29:30;;;;;;;0.00;0.00;;;;;;;;;;7381485;19;20160;-68
2023/08/28 01:31:59;;;;;;;0.00;0.00;;;;;;;;;;7381425;19;20156;-68
2023/08/28 01:34:28;;;;;;;0.00;0.00;;;;;;;;;;7381421;19;20149;-68
2023/08/28 01:36:59;;;;;;;0.00;0.00;;;;;;;;;;7382336;19;20171;-68
2023/08/28 01:39:31;;;;;;;0.00;0.00;;;;;;;;;;7382670;19;20153;-68
2023/08/28 01:42:02;;;;;;;0.00;0.00;;;;;;;;;;7379819;19;20180;-68
2023/08/28 01:44:35;;;;;;;0.00;0.00;;;;;;;;;;7381737;19;20172;-68
2023/08/28 01:47:04;;;;;;;0.00;0.00;;;;;;;;;;7387104;19;20156;-68
2023/08/28 01:49:32;;;;;;;0.00;0.00;;;;;;;;;;7389888;19;20156;-68
2023/08/28 01:52:02;;;;;;;0.00;0.00;;;;;;;;;;7386836;19;20180;-68
2023/08/28 01:54:31;;;;;;;0.00;0.00;;;;;;;;;;7390048;19;20220;-68
2023/08/28 01:57:02;;;;;;;0.00;0.00;;;;;;;;;;7388618;19;20156;-68
2023/08/28 01:59:31;;;;;;;0.00;0.00;;;;;;;;;;7389925;19;20160;-68
2023/08/28 02:02:00;;;;;;;0.00;0.00;;;;;;;;;;7386599;19;20176;-68
2023/08/28 02:04:29;;;;;;;0.00;0.00;;;;;;;;;;7389950;19;20163;-69
2023/08/28 02:06:59;;;;;;;0.00;0.00;;;;;;;;;;7389713;19;20157;-68
2023/08/28 02:09:27;;;;;;;0.00;0.00;;;;;;;;;;7390964;19;20141;-69
2023/08/28 02:11:56;;;;;;;0.00;0.00;;;;;;;;;;7388827;19;20160;-68
2023/08/28 02:14:28;;;;;;;0.00;0.00;;;;;;;;;;7388834;19;20149;-69
2023/08/28 02:16:57;;;;;;;0.00;0.00;;;;;;;;;;7389398;19;20224;-68
2023/08/28 02:19:26;;;;;;;0.00;0.00;;;;;;;;;;7388576;19;20160;-68
2023/08/28 02:21:57;;;;;;;0.00;0.00;;;;;;;;;;7386192;19;20180;-68
2023/08/28 02:24:26;;;;;;;0.00;0.00;;;;;;;;;;7390149;19;20204;-68
2023/08/28 02:26:56;;;;;;;0.00;0.00;;;;;;;;;;7388074;19;20157;-68
2023/08/28 02:29:25;;;;;;;0.00;0.00;;;;;;;;;;7389949;19;20149;-68
2023/08/28 02:31:59;;;;;;;0.00;0.00;;;;;;;;;;7382768;19;20184;-67
2023/08/28 02:34:28;;;;;;;0.03;0.03;;;;;;;;;;7389329;19;20137;-68
2023/08/28 02:36:57;;;;;;;0.00;0.00;;;;;;;;;;7389948;19;20137;-68
2023/08/28 02:39:26;;;;;;;0.00;0.00;;;;;;;;;;7388272;19;20223;-67
2023/08/28 02:41:55;;;;;;;0.00;0.00;;;;;;;;;;7385281;19;20219;-68
2023/08/28 02:44:24;;;;;;;0.00;0.00;;;;;;;;;;7387782;19;20160;-68
2023/08/28 02:46:53;;;;;;;0.00;0.00;;;;;;;;;;7388740;19;20139;-67
2023/08/28 02:49:24;;;;;;;0.00;0.00;;;;;;;;;;7389481;19;20136;-68
2023/08/28 02:51:53;;;;;;;0.00;0.00;;;;;;;;;;7385348;19;20492;-68
2023/08/28 02:54:22;;;;;;;0.00;0.00;;;;;;;;;;7386624;19;20517;-68
2023/08/28 02:56:51;;;;;;;0.00;0.00;;;;;;;;;;7388315;19;20156;-68
2023/08/28 02:59:20;;;;;;;0.00;0.00;;;;;;;;;;7387467;19;20640;-68
2023/08/28 03:01:50;;;;;;;0.00;0.00;;;;;;;;;;7384849;19;20180;-68
2023/08/28 03:04:19;;;;;;;0.00;0.00;;;;;;;;;;7386180;19;20163;-68
2023/08/28 03:06:50;;;;;;;0.00;0.00;;;;;;;;;;7387085;19;20157;-68
2023/08/28 03:09:19;;;;;;;0.00;0.00;;;;;;;;;;7385763;19;20156;-68
2023/08/28 03:11:48;;;;;;;0.00;0.00;;;;;;;;;;7385554;19;20161;-69
2023/08/28 03:14:20;;;;;;;0.00;0.00;;;;;;;;;;7383531;19;20148;-69
2023/08/28 03:16:49;;;;;;;0.00;0.00;;;;;;;;;;7386425;19;20164;-68
2023/08/28 03:19:18;;;;;;;0.00;0.00;;;;;;;;;;7388043;19;20201;-68
2023/08/28 03:21:50;;;;;;;0.00;0.00;;;;;;;;;;7384206;19;20192;-68
2023/08/28 03:24:19;;;;;;;0.00;0.00;;;;;;;;;;7385622;19;20152;-68
2023/08/28 03:26:48;;;;;;;0.00;0.00;;;;;;;;;;7386781;19;20160;-69
2023/08/28 03:29:17;;;;;;;0.00;0.00;;;;;;;;;;7386323;19;20153;-69
2023/08/28 03:31:46;;;;;;;0.00;0.00;;;;;;;;;;7383540;19;20184;-69
2023/08/28 03:34:17;;;;;;;0.00;0.00;;;;;;;;;;7385588;19;20152;-69
2023/08/28 03:36:46;;;;;;;0.00;0.00;;;;;;;;;;7387854;19;20155;-68
2023/08/28 03:39:17;;;;;;;0.10;0.10;;;;;;;;;;7386391;19;20152;-69
2023/08/28 03:41:46;;;;;;;0.00;0.00;;;;;;;;;;7383110;19;20173;-68
2023/08/28 03:44:15;;;;;;;0.00;0.00;;;;;;;;;;7386612;19;20142;-69
2023/08/28 03:46:44;;;;;;;0.00;0.00;;;;;;;;;;7384871;19;20171;-68
2023/08/28 03:49:13;;;;;;;0.00;0.00;;;;;;;;;;7387325;19;20129;-69
2023/08/28 03:51:42;;;;;;;0.00;0.00;;;;;;;;;;7385031;19;20237;-68
2023/08/28 03:54:14;;;;;;;0.07;0.07;;;;;;;;;;7385287;19;20153;-69
2023/08/28 03:56:45;;;;;;;0.00;0.00;;;;;;;;;;7385341;19;20148;-69
2023/08/28 03:59:14;;;;;;;0.00;0.00;;;;;;;;;;7385496;19;20181;-68
2023/08/28 04:01:43;;;;;;;0.00;0.00;;;;;;;;;;7384636;19;20189;-69
2023/08/28 04:04:13;;;;;;;0.00;0.00;;;;;;;;;;7385319;19;20152;-69
2023/08/28 04:06:42;;;;;;;0.00;0.00;;;;;;;;;;7384766;19;20160;-69
2023/08/28 04:09:11;;;;;;;0.10;0.10;;;;;;;;;;7383424;19;20141;-69
2023/08/28 04:11:41;;;;;;;0.00;0.00;;;;;;;;;;7382548;19;20209;-69
2023/08/28 04:14:12;;;;;;;0.00;0.00;;;;;;;;;;7384387;19;20167;-69
2023/08/28 04:16:41;;;;;;;0.07;0.07;;;;;;;;;;7383987;19;20152;-69
2023/08/28 04:19:10;;;;;;;0.00;0.00;;;;;;;;;;7383830;19;20152;-69
2023/08/28 04:21:39;;;;;;;0.00;0.00;;;;;;;;;;7383590;19;20191;-69
2023/08/28 04:24:09;;;;;;;0.10;0.10;;;;;;;;;;7382781;19;20156;-69
2023/08/28 04:26:38;;;;;;;0.00;0.00;;;;;;;;;;7384094;19;20179;-69
2023/08/28 04:29:07;;;;;;;0.00;0.00;;;;;;;;;;7383720;19;20149;-69
2023/08/28 04:31:39;;;;;;;0.00;0.00;;;;;;;;;;7382241;19;20172;-69
2023/08/28 04:34:08;;;;;;;0.00;0.00;;;;;;;;;;7383893;19;20623;-69
2023/08/28 04:36:39;;;;;;;0.00;0.00;;;;;;;;;;7383976;19;20245;-69
2023/08/28 04:39:08;;;;;;;0.00;0.00;;;;;;;;;;7384228;19;20148;-69
2023/08/28 04:41:37;;;;;;;0.00;0.00;;;;;;;;;;7383441;19;20208;-69
2023/08/28 04:44:07;;;;;;;0.00;0.00;;;;;;;;;;7383976;19;20175;-69
2023/08/28 04:46:38;;;;;;;0.00;0.00;;;;;;;;;;7383318;19;20161;-69
2023/08/28 04:49:07;;;;;;;0.00;0.00;;;;;;;;;;7385149;19;20164;-69
2023/08/28 04:51:36;;;;;;;0.00;0.00;;;;;;;;;;7384519;19;20183;-69
2023/08/28 04:54:06;;;;;;;0.00;0.00;;;;;;;;;;7384405;19;20179;-69
2023/08/28 04:56:35;;;;;;;0.00;0.00;;;;;;;;;;7383889;19;20195;-69
2023/08/28 04:59:05;;;;;;;0.10;0.10;;;;;;;;;;7384432;19;20159;-70
2023/08/28 05:01:35;;;;;;;0.00;0.00;;;;;;;;;;7382772;19;20263;-69
2023/08/28 05:04:06;;;;;;;0.00;0.00;;;;;;;;;;7383506;19;20235;-69
2023/08/28 05:06:35;;;;;;;0.03;0.03;;;;;;;;;;7383217;19;20176;-69
2023/08/28 05:09:04;;;;;;;0.00;0.00;;;;;;;;;;7385079;19;20125;-69
2023/08/28 05:11:33;;;;;;;0.00;0.00;;;;;;;;;;7382418;19;20167;-69
2023/08/28 05:14:03;;;;;;;0.03;0.03;;;;;;;;;;7382799;19;20152;-69
2023/08/28 05:16:32;;;;;;;0.10;0.10;;;;;;;;;;7381803;19;20144;-69
2023/08/28 05:19:01;;;;;;;0.00;0.00;;;;;;;;;;7383517;19;20189;-69
2023/08/28 05:21:33;;;;;;;0.00;0.00;;;;;;;;;;7377843;19;20183;-68
2023/08/28 05:24:02;;;;;;;0.00;0.00;;;;;;;;;;7381987;19;20674;-69
2023/08/28 05:26:32;;;;;;;0.00;0.00;;;;;;;;;;7381520;19;20590;-68
2023/08/28 05:29:01;;;;;;;0.10;0.10;;;;;;;;;;7383993;19;20138;-69
2023/08/28 05:31:30;;;;;;;0.00;0.00;;;;;;;;;;7381009;19;20180;-69
2023/08/28 05:33:59;;;;;;;0.00;0.00;;;;;;;;;;7380244;19;20164;-69
2023/08/28 05:36:29;;;;;;;0.00;0.00;;;;;;;;;;7381755;19;20525;-69
2023/08/28 05:39:01;;;;;;;0.00;0.00;;;;;;;;;;7382140;19;20193;-69
2023/08/28 05:41:30;;;;;;;0.00;0.00;;;;;;;;;;7381170;19;20188;-69
2023/08/28 05:43:59;;;;;;;0.00;0.00;;;;;;;;;;7382644;19;20149;-69
2023/08/28 05:46:28;;;;;;;0.00;0.00;;;;;;;;;;7382549;19;20160;-69
2023/08/28 05:49:00;;;;;;;0.00;0.00;;;;;;;;;;7382336;19;20196;-69
2023/08/28 05:51:29;;;;;;;0.00;0.00;;;;;;;;;;7380766;19;20263;-70
2023/08/28 05:54:01;;;;;;;0.00;0.00;;;;;;;;;;7381460;19;20144;-69
2023/08/28 05:56:30;;;;;;;0.00;0.00;;;;;;;;;;7382286;19;20177;-69
2023/08/28 05:59:00;;;;;;;0.00;0.00;;;;;;;;;;7381925;19;20157;-69
2023/08/28 06:01:29;;;;;;;0.00;0.00;;;;;;;;;;7381463;19;20189;-69
2023/08/28 06:03:58;;;;;;;0.00;0.00;;;;;;;;;;7381127;19;20207;-69
2023/08/28 06:06:27;;;;;;;0.00;0.00;;;;;;;;;;7382009;19;20161;-69
2023/08/28 06:08:56;;;;;;;0.00;0.00;;;;;;;;;;7383200;19;20133;-69
2023/08/28 06:11:28;;;;;;;0.00;0.00;;;;;;;;;;7380063;19;20172;-69
2023/08/28 06:13:57;;;;;;;0.00;0.00;;;;;;;;;;7380116;19;20148;-70
2023/08/28 06:16:26;;;;;;;0.00;0.00;;;;;;;;;;7380759;19;20152;-69
2023/08/28 06:18:55;;;;;;;0.00;0.00;;;;;;;;;;7381771;19;20669;-69
2023/08/28 06:21:25;;;;;;;0.00;0.00;;;;;;;;;;7380018;19;20180;-69
2023/08/28 06:23:54;;;;;;;0.00;0.00;;;;;;;;;;7380071;19;20651;-69
2023/08/28 06:26:23;;;;;;;0.00;0.00;;;;;;;;;;7380334;19;20156;-69
2023/08/28 06:28:54;;;;;;;0.00;0.00;;;;;;;;;;7380093;19;20164;-69
2023/08/28 06:31:23;;;;;;;0.00;0.00;;;;;;;;;;7379938;19;20396;-69
2023/08/28 06:33:52;;;;;;;0.00;0.00;;;;;;;;;;7386435;19;20156;-69
2023/08/28 06:36:21;;;;;;;0.00;0.00;;;;;;;;;;7390771;19;20137;-69
2023/08/28 06:38:52;;;;;;;0.00;0.00;;;;;;;;;;7387766;19;20160;-69
2023/08/28 06:41:21;;;;;;;0.00;0.00;;;;;;;;;;7387834;19;20140;-69
2023/08/28 06:43:50;;;;;;;0.00;0.00;;;;;;;;;;7387745;19;20171;-69
2023/08/28 06:46:22;;;;;;;0.00;0.00;;;;;;;;;;7388415;19;20159;-69
2023/08/28 06:48:52;;;;;;;0.00;0.00;;;;;;;;;;7388887;19;20632;-69
2023/08/28 06:51:21;;;;;;;0.00;0.00;;;;;;;;;;7390241;19;20141;-69
2023/08/28 06:53:51;;;;;;;0.00;0.00;;;;;;;;;;7386019;19;20144;-69
2023/08/28 06:56:19;;;;;;;0.00;0.00;;;17.10;99.90;;;;;;7388925;19;20157;-69
2023/08/28 06:58:48;;;;;;;0.00;0.00;;;17.70;99.90;;;;;;7387852;19;20600;-69
2023/08/28 07:01:17;;;;;;;0.00;0.00;;;17.90;99.90;;;;;;7388115;19;20137;-69
2023/08/28 07:03:49;;;;;;;0.00;0.00;;;;;;;;;;7387828;19;20142;-69
2023/08/28 07:06:18;;;;;;;0.00;0.00;;;;;;;;;;7388199;19;20141;-70
2023/08/28 07:08:47;;;;;;;0.00;0.00;;;;;;;;;;7387730;19;20137;-69
2023/08/28 07:11:16;;;;;;;0.00;0.00;;;18.10;99.90;;;;;;7386515;19;20133;-69
2023/08/28 07:13:45;;;;;;;0.00;0.00;;;18.60;99.90;;;;;;7385328;19;20180;-69
2023/08/28 07:16:14;;;;;;;0.23;0.23;;;;;;;;;;7387774;19;20141;-69
2023/08/28 07:18:43;;;;;;;0.00;0.00;;;;;;;;;;7387140;19;20125;-69
2023/08/28 07:21:15;;;;;;;0.00;0.00;;;18.60;99.90;;;;;;7384470;19;20198;-69
2023/08/28 07:23:44;;;;;;;0.00;0.00;;;18.50;99.90;;;;;;7385643;19;20140;-69
2023/08/28 07:26:13;;;;;;;0.00;0.00;;;18.60;99.90;;;;;;7387955;19;20155;-69
2023/08/28 07:28:42;;;;;;;0.00;0.00;;;18.50;99.90;;;;;;7388037;19;20133;-69
2023/08/28 07:31:12;;;;;;;0.00;0.00;;;18.50;99.90;;;;;;7385768;19;20638;-69
2023/08/28 07:33:40;;;;;;;0.00;0.00;;;18.50;99.90;;;;;;7383107;19;20164;-69
2023/08/28 07:36:09;;;;;;;0.00;0.00;;;18.50;99.90;;;;;;7387479;19;20155;-69
2023/08/28 07:38:43;;;;;;;0.00;0.00;;;18.60;99.90;;;;;;7385172;19;20644;-69
2023/08/28 07:41:12;;;;;;;0.00;0.00;;;18.60;99.90;;;;;;7387499;19;20133;-69
2023/08/28 07:43:41;;;;;;;0.00;0.00;;;18.60;99.90;;;;;;7384425;19;20125;-70
2023/08/28 07:46:10;;;;;;;0.00;0.00;;;18.60;99.90;;;;;;7388208;19;20136;-69
2023/08/28 07:48:39;;;;;;;0.00;0.00;;;18.60;99.90;;;;;;7386631;19;20149;-69
2023/08/28 07:51:08;;;;;;;0.00;0.00;;;18.60;99.90;;;;;;7388116;19;20143;-69
2023/08/28 07:53:40;;;;;;;0.00;0.00;;;18.60;99.90;;;;;;7384404;19;20133;-69
2023/08/28 07:56:10;;;;;;;0.00;0.00;;;18.60;99.90;;;;;;7385272;19;20153;-69
2023/08/28 07:58:39;;;;;;;0.00;0.00;;;18.60;99.90;;;;;;7386431;19;20136;-69
2023/08/28 08:01:08;;;;;;;0.00;0.00;;;18.70;99.90;;;;;;7385442;19;20149;-69
2023/08/28 08:03:37;;;;;;;0.00;0.00;;;18.70;99.90;;;;;;7385625;19;20197;-69
2023/08/28 08:06:06;;;;;;;0.00;0.00;;;18.80;99.90;;;;;;7386611;19;20141;-69
2023/08/28 08:08:35;;;;;;;0.00;0.00;;;18.90;99.90;;;;;;7384211;19;20152;-69
2023/08/28 08:11:07;;;;;;;0.00;0.00;;;19.00;99.90;;;;;;7383846;19;20187;-69
2023/08/28 08:13:36;;;;;;;0.00;0.00;;;;;;;;;;7382979;19;20224;-69
2023/08/28 08:16:05;;;;;;;0.00;0.00;;;19.10;99.90;;;;;;7388699;19;20612;-69
2023/08/28 08:18:34;;;;;;;0.00;0.00;;;19.20;99.90;;;;;;7386404;19;20175;-69
2023/08/28 08:21:03;;;;;;;0.00;0.00;;;19.30;99.90;;;;;;7383632;19;20160;-69
2023/08/28 08:23:32;;;;;;;0.00;0.00;;;19.40;99.90;;;;;;7384951;19;20163;-70
2023/08/28 08:26:01;;;;;;;0.00;0.00;;;19.60;99.90;;;;;;7386113;19;20136;-69
2023/08/28 08:28:32;;;;;;;0.00;0.00;;;19.60;99.90;;;;;;7387875;19;20140;-70
2023/08/28 08:31:01;;;;;;;0.00;0.00;;;19.50;99.90;;;;;;7383221;19;20202;-69
2023/08/28 08:33:30;;;;;;;0.00;0.00;;;19.50;99.90;;;;;;7381387;19;20153;-70
2023/08/28 08:35:59;;;;;;;0.00;0.00;;;19.60;99.90;;;;;;7386180;19;20137;-70
2023/08/28 08:38:28;;;;;;;0.00;0.00;;;19.60;99.90;;;;;;7385039;19;20163;-69
2023/08/28 08:40:58;;;;;;;0.00;0.00;;;19.70;99.90;;;;;;7385334;19;20140;-69
2023/08/28 08:43:27;;;;;;;0.00;0.00;;;19.80;99.90;;;;;;7381946;19;20189;-69
2023/08/28 08:46:05;;;;;;;0.00;0.00;;;19.80;99.90;;;;;;7386087;19;20168;-70
2023/08/28 08:48:36;;;;;;;0.00;0.00;;;19.70;99.90;;;;;;7385128;19;20183;-69
2023/08/28 08:51:07;;;;;;;0.00;0.00;;;19.60;99.90;;;;;;7383640;19;20153;-69
2023/08/28 08:53:44;;;;;;;0.00;0.00;;;19.60;99.90;;;;;;7381583;19;20157;-69
2023/08/28 08:56:17;;;;;;;0.00;0.00;;;19.60;99.90;;;;;;7383538;19;20168;-69
2023/08/28 08:58:47;;;;;;;0.00;0.00;;;19.60;99.90;;;;;;7385200;19;20136;-69
2023/08/28 09:01:19;;;;;;;0.00;0.00;;;19.50;99.90;;;;;;7383907;19;20153;-69
2023/08/28 09:03:49;;;;;;;0.00;0.00;;;19.40;99.90;;;;;;7382037;19;20159;-70
2023/08/28 09:06:18;;;;;;;0.00;0.00;;;19.50;99.90;;;;;;7383089;19;20148;-69
2023/08/28 09:08:48;;;;;;;0.00;0.00;;;19.50;99.90;;;;;;7382946;19;20176;-70
2023/08/28 09:11:17;;;;;;;0.00;0.00;;;19.40;99.90;;;;;;7382862;19;20152;-69
2023/08/28 09:13:46;;;;;;;0.00;0.00;;;19.40;99.90;;;;;;7382647;19;20172;-70
2023/08/28 09:16:20;;;;;;;0.00;0.00;;;19.40;99.90;;;;;;7382909;19;20176;-69
2023/08/28 09:18:49;;;;;;;0.00;0.00;;;19.40;99.90;;;;;;7384501;19;20163;-69
2023/08/28 09:21:18;;;;;;;0.00;0.00;;;19.50;99.90;;;;;;7382043;19;20156;-69
2023/08/28 09:23:49;;;;;;;0.00;0.00;;;19.50;99.90;;;;;;7383437;19;20137;-69
2023/08/28 09:26:20;;;;;;;0.00;0.00;;;19.60;99.90;;;;;;7385319;19;20136;-69
2023/08/28 09:29:01;;;;;;;0.00;0.00;;;19.60;99.90;;;;;;7382422;19;20216;-69
2023/08/28 09:31:34;;;;;;;0.00;0.00;;;19.60;99.90;;;;;;7384055;19;20164;-69
2023/08/28 09:34:03;;;;;;;0.00;0.00;;;19.70;99.90;;;;;;7379404;19;20156;-69
2023/08/28 09:36:35;;;;;;;0.00;0.00;;;19.80;99.90;;;;;;7382502;19;20156;-69
2023/08/28 09:39:06;;;;;;;0.00;0.00;;;19.80;99.90;;;;;;7384379;19;20137;-69
2023/08/28 09:41:41;;;;;;;0.00;0.00;;;19.90;99.90;;;;;;7381230;19;20203;-70
2023/08/28 09:44:11;;;;;;;0.00;0.00;;;19.90;99.90;;;;;;7381868;19;20159;-69
2023/08/28 09:46:44;;;;;;;0.00;0.00;;;;;;;;;;7383988;19;20246;-69
2023/08/28 09:49:15;;;;;;;0.00;0.00;;;20.00;99.90;;;;;;7381814;19;20172;-69
2023/08/28 09:51:45;;;;;;;0.00;0.00;;;20.10;99.90;;;;;;7379561;19;20177;-69
2023/08/28 09:54:15;;;;;;;0.00;0.00;;;;;;;;;;7380247;19;20220;-69
2023/08/28 09:56:45;;;;;;;0.00;0.00;;;;;;;;;;7380530;19;20156;-69
2023/08/28 09:59:15;;;;;;;0.00;0.00;;;;;;;;;;7381566;19;20149;-70
2023/08/28 10:01:48;;;;;;;0.00;0.00;;;;;;;;;;7380529;19;20168;-69
2023/08/28 10:04:19;;;;;;;0.00;0.00;;;;;;;;;;7382967;19;20151;-69
2023/08/28 10:06:49;;;;;;;0.00;0.00;;;;;;;;;;7383977;19;20133;-69
2023/08/28 10:09:22;;;;;;;0.00;0.00;;;;;;;;;;7390082;19;20160;-69
2023/08/28 10:11:53;;;;;;;0.00;0.00;;;;;;;;;;7386053;19;20283;-68
2023/08/28 10:14:23;;;;;;;0.00;0.00;;;;;;;;;;7385217;19;20157;-70
2023/08/28 10:16:57;;;;;;;0.00;0.00;;;;;;;;;;7389771;19;20148;-69
2023/08/28 10:19:29;;;;;;;0.00;0.00;;;;;;;;;;7388008;19;20156;-68
2023/08/28 10:21:58;;;;;;;0.00;0.00;;;;;;;;;;7384846;19;20197;-69
2023/08/28 10:24:27;;;;;;;0.00;0.00;;;;;;;;;;7390069;19;20137;-69
2023/08/28 10:26:57;;;;;;;0.00;0.00;;;;;;;;;;7390424;19;20131;-68
2023/08/28 10:29:27;;;;;;;0.00;0.00;;;;;;;;;;7388300;19;20160;-68
2023/08/28 10:31:59;;;;;;;0.00;0.00;;;;;;;;;;7387571;19;20175;-68
2023/08/28 10:34:29;;;;;;;0.00;0.00;;;;;;;;;;7385854;19;20254;-69
2023/08/28 10:37:00;;;;;;;0.00;0.00;;;;;;;;;;7386775;19;20196;-68
2023/08/28 10:39:29;;;;;;;0.00;0.00;;;;;;;;;;7388273;19;20158;-68
2023/08/28 10:41:58;;;;;;;0.00;0.00;;;;;;;;;;7386941;19;20156;-68
2023/08/28 10:44:28;;;;;;;0.00;0.00;;;;;;;;;;7388839;19;20129;-68
2023/08/28 10:47:00;;;;;;;0.00;0.00;;;;;;;;;;7388787;19;20646;-69
2023/08/28 10:49:30;;;;;;;0.00;0.00;;;;;;;;;;7388060;19;20153;-69
2023/08/28 10:52:03;;;;;;;0.00;0.00;;;;;;;;;;7385825;19;20184;-68
2023/08/28 10:54:38;;;;;;;0.00;0.00;;;;;;;;;;7385316;19;20156;-69
2023/08/28 10:57:10;;;;;;;0.00;0.00;;;;;;;;;;7388050;19;20147;-68
2023/08/28 10:59:46;;;;;;;0.00;0.00;;;;;;;;;;7388170;19;20149;-69
2023/08/28 11:02:17;;;;;;;0.00;0.00;;;;;;;;;;7386073;19;20156;-68
2023/08/28 11:04:46;;;;;;;0.00;0.00;;;;;;;;;;7385891;19;20691;-68
2023/08/28 11:07:33;;;;;;;0.00;0.00;;;;;;;;;;7385755;19;20157;-68
2023/08/28 11:10:17;;;;;;;0.00;0.00;;;;;;;;;;7387425;19;20172;-67
2023/08/28 11:12:53;;;;;;;0.00;0.00;;;;;;;;;;7384232;19;20157;-68
2023/08/28 11:15:29;;;;;;;0.00;0.00;;;;;;;;;;7387175;19;20171;-68
2023/08/28 11:18:13;;;;;;;0.00;0.00;;;;;;;;;;7385562;19;20132;-68
2023/08/28 11:20:45;;;;;;;0.00;0.00;;;;;;;;;;7387607;19;20145;-67
2023/08/28 11:23:21;;;;;;;0.00;0.00;;;;;;;;;;7382946;19;20177;-68
2023/08/28 11:25:50;;;;;;;0.00;0.00;;;;;;;;;;7386800;19;20141;-67
2023/08/28 11:28:30;;;;;;;0.00;0.00;;;;;;;;;;7385821;19;20180;-68
2023/08/28 11:31:04;;;;;;;0.00;0.00;;;;;;;;;;7388395;19;20141;-67
2023/08/28 11:33:42;;;;;;;0.00;0.00;;;;;;;;;;7385264;19;20136;-67
2023/08/28 11:36:17;;;;;;;0.00;0.00;;;;;;;;;;7387790;19;20133;-68
2023/08/28 11:38:46;;;;;;;0.00;0.00;;;;;;;;;;7385701;19;20172;-67
2023/08/28 11:41:16;;;;;;;0.00;0.00;;;;;;;;;;7385203;19;20167;-68
2023/08/28 11:43:46;;;;;;;0.00;0.00;;;;;;;;;;7386846;19;20144;-67
2023/08/28 11:46:16;;;;;;;0.00;0.00;;;;;;;;;;7387791;19;20164;-68
2023/08/28 11:48:48;;;;;;;0.00;0.00;;;;;;;;;;7385600;19;20197;-68
2023/08/28 11:51:28;;;;;;;0.00;0.00;;;;;;;;;;7385306;19;20152;-68
2023/08/28 11:53:57;;;;;;;0.00;0.00;;;;;;;;;;7385806;19;20129;-68
2023/08/28 11:56:27;;;;;;;0.00;0.00;;;;;;;;;;7385802;19;20175;-69
2023/08/28 11:58:57;;;;;;;0.00;0.00;;;;;;;;;;7384974;19;20193;-68
2023/08/28 12:01:27;;;;;;;0.00;0.00;;;;;;;;;;7384808;19;20256;-67
2023/08/28 12:04:02;;;;;;;0.00;0.00;;;;;;;;;;7383890;19;20612;-67
2023/08/28 12:06:39;;;;;;;0.00;0.00;;;;;;;;;;7385302;19;20159;-68
2023/08/28 12:09:11;;;;;;;0.00;0.00;;;;;;;;;;7385417;19;20220;-67
2023/08/28 12:11:40;;;;;;;0.00;0.00;;;;;;;;;;7383667;19;20177;-68
2023/08/28 12:14:16;;;;;;;0.00;0.00;;;;;;;;;;7382818;19;20188;-67
2023/08/28 12:16:45;;;;;;;0.00;0.00;;;;;;;;;;7386788;19;20139;-68
2023/08/28 12:19:20;;;;;;;0.00;0.00;;;;;;;;;;7385908;19;20133;-68
2023/08/28 12:21:52;;;;;;;0.00;0.00;;;;;;;;;;7383516;19;20190;-68
2023/08/28 12:24:21;;;;;;;0.00;0.00;;;;;;;;;;7385371;19;20141;-68
2023/08/28 12:26:50;;;;;;;0.00;0.00;;;;;;;;;;7384825;19;20168;-68
2023/08/28 12:29:19;;;;;;;0.00;0.00;;;;;;;;;;7384803;19;20137;-68
2023/08/28 12:31:51;;;;;;;0.00;0.00;;;;;;;;;;7382153;19;20190;-68
2023/08/28 12:34:20;;;;;;;0.00;0.00;;;;;;;;;;7382104;19;20164;-68
2023/08/28 12:36:52;;;;;;;0.00;0.00;;;;;;;;;;7384514;19;20149;-67
2023/08/28 12:39:22;;;;;;;0.00;0.00;;;;;;;;;;7385044;19;20200;-68
2023/08/28 12:41:53;;;;;;;0.00;0.00;;;20.20;99.90;;;;;;7383688;19;20152;-68
2023/08/28 12:44:22;;;;;;;0.00;0.00;;;;;;;;;;7385731;19;20160;-69
2023/08/28 12:46:51;;;;;;;0.00;0.00;;;;;;;;;;7383973;19;20164;-68
2023/08/28 12:49:20;;;;;;;0.00;0.00;;;;;;;;;;7384013;19;20167;-69
2023/08/28 12:51:54;;;;;;;0.00;0.00;;;;;;;;;;7382547;19;20140;-67
2023/08/28 12:54:24;;;;;;;0.00;0.00;;;;;;;;;;7381858;19;20156;-67
2023/08/28 12:56:53;;;;;;;0.00;0.00;;;;;;;;;;7382447;19;20157;-68
2023/08/28 12:59:25;;;;;;;0.00;0.00;;;;;;;;;;7384454;19;20145;-68
2023/08/28 13:01:54;;;;;;;0.00;0.00;;;;;;;;;;7380735;19;20181;-68
2023/08/28 13:04:23;;;;;;;0.00;0.00;;;;;;;;;;7382291;19;20160;-69
2023/08/28 13:06:55;;;;;;;0.00;0.00;;;;;;;;;;7384095;19;20141;-68
2023/08/28 13:09:25;;;;;;;0.00;0.00;;;;;;;;;;7382606;19;20151;-68
2023/08/28 13:11:54;;;;;;;0.00;0.00;;;;;;;;;;7383908;19;20156;-68
2023/08/28 13:14:23;;;;;;;0.00;0.00;;;;;;;;;;7382383;19;20145;-68
2023/08/28 13:16:52;;;;;;;0.00;0.00;;;;;;;;;;7384388;19;20145;-68
2023/08/28 13:19:21;;;;;;;0.00;0.00;;;;;;;;;;7383184;19;20133;-68
2023/08/28 13:21:52;;;;;;;0.00;0.00;;;;;;;;;;7381332;19;20180;-68
2023/08/28 13:24:24;;;;;;;0.00;0.00;;;;;;;;;;7383787;19;20153;-69
2023/08/28 13:26:53;;;;;;;0.00;0.00;;;;;;;;;;7383878;19;20137;-68
2023/08/28 13:29:22;;;;;;;0.00;0.00;;;;;;;;;;7382141;19;20168;-67
2023/08/28 13:31:51;;;;;;;0.00;0.00;;;;;;;;;;7382038;19;20175;-67
2023/08/28 13:34:20;;;;;;;0.00;0.00;;;;;;;;;;7382486;19;20157;-68
2023/08/28 13:36:49;;;;;;;0.00;0.00;;;;;;;;;;7381183;19;20153;-68
2023/08/28 13:39:18;;;;;;;0.00;0.00;;;;;;;;;;7383722;19;20141;-68
2023/08/28 13:41:51;;;;;;;0.00;0.00;;;;;;;;;;7379917;19;20160;-67
2023/08/28 13:44:20;;;;;;;0.00;0.00;;;;;;;;;;7384513;19;20657;-68
2023/08/28 13:46:49;;;;;;;0.00;0.00;;;;;;;;;;7383776;19;20156;-68
2023/08/28 13:49:19;;;;;;;0.00;0.00;;;;;;;;;;7383142;19;20137;-68
2023/08/28 13:51:49;;;;;;;0.00;0.00;;;;;;;;;;7380935;19;20177;-68
2023/08/28 13:54:18;;;;;;;0.00;0.00;;;;;;;;;;7380416;19;20179;-68
2023/08/28 13:56:51;;;;;;;0.00;0.00;;;;;;;;;;7381988;19;20179;-67
2023/08/28 13:59:20;;;;;;;0.00;0.00;;;;;;;;;;7383073;19;20145;-68
2023/08/28 14:01:49;;;;;;;0.00;0.00;;;;;;;;;;7381603;19;20156;-67
2023/08/28 14:04:18;;;;;;;0.00;0.00;;;;;;;;;;7382093;19;20137;-68
2023/08/28 14:06:47;;;;;;;0.00;0.00;;;;;;;;;;7383842;19;20133;-69
2023/08/28 14:09:16;;;;;;;0.00;0.00;;;;;;;;;;7383245;19;20208;-68
2023/08/28 14:11:45;;;;;;;0.00;0.00;;;;;;;;;;7381580;19;20658;-68
2023/08/28 14:14:16;;;;;;;0.00;0.00;;;;;;;;;;7381786;19;20157;-67
2023/08/28 14:16:45;;;;;;;0.00;0.00;;;;;;;;;;7380994;19;20157;-68
2023/08/28 14:19:14;;;;;;;0.00;0.00;;;;;;;;;;7382569;19;20147;-68
2023/08/28 14:21:43;;;;;;;0.00;0.00;;;;;;;;;;7381969;19;20153;-68
2023/08/28 14:24:12;;;;;;;0.00;0.00;;;;;;;;;;7381600;19;20168;-69
2023/08/28 14:26:41;;;;;;;0.00;0.00;;;;;;;;;;7380801;19;20568;-68
2023/08/28 14:29:11;;;;;;;0.00;0.00;;;;;;;;;;7382994;19;20133;-68
2023/08/28 14:31:42;;;;;;;0.00;0.00;;;;;;;;;;7379911;19;20184;-68
2023/08/28 14:34:11;;;;;;;0.00;0.00;;;;;;;;;;7378970;19;20164;-67
2023/08/28 14:36:40;;;;;;;0.00;0.00;;;;;;;;;;7379803;19;20883;-67